Time;durP1;ratioP1;P1;durP2;ratioP2;P2;SDS_P1;SDS_P2;PMS_P1;PMS_P2;Temp;Humidity;BMP_temperature;BMP_pressure;BME280_temperature;BME280_humidity;BME280_pressure;Samples;Min_cycle;Max_cycle;Signal;HPM_P1;HPM_P2
2022/11/13 00:00:57;;;;;;;;;;;7.20;99.90;;;;;;5069749;28;20055;-76
2022/11/13 00:03:23;;;;;;;21.30;9.35;;;7.20;99.90;;;;;;5070486;28;19908;-77
2022/11/13 00:05:57;;;;;;;;;;;7.20;99.90;;;;;;5051667;28;20727;-78
2022/11/13 00:08:22;;;;;;;13.75;8.57;;;7.10;99.90;;;;;;5054773;28;20304;-77
2022/11/13 00:10:48;;;;;;;;;;;7.00;99.90;;;;;;5055840;28;20032;-77
2022/11/13 00:13:13;;;;;;;20.33;9.65;;;7.00;99.90;;;;;;5073969;28;19912;-77
2022/11/13 00:15:39;;;;;;;;;;;7.00;99.90;;;;;;5057249;28;20524;-77
2022/11/13 00:18:04;;;;;;;26.10;10.30;;;7.00;99.90;;;;;;5074474;28;19916;-76
2022/11/13 00:20:30;;;;;;;16.50;8.48;;;6.80;99.90;;;;;;5056313;28;20519;-77
2022/11/13 00:22:56;;;;;;;;;;;6.80;99.90;;;;;;5074863;28;20029;-77
2022/11/13 00:25:21;;;;;;;16.67;8.70;;;6.80;99.90;;;;;;5056831;28;19915;-76
2022/11/13 00:27:47;;;;;;;;;;;6.70;99.90;;;;;;5074244;28;20417;-76
2022/11/13 00:30:13;;;;;;;18.95;8.10;;;6.70;99.90;;;;;;5056189;28;19913;-76
2022/11/13 00:32:39;;;;;;;;;;;6.80;99.90;;;;;;5057019;28;21002;-76
2022/11/13 00:35:05;;;;;;;17.92;9.25;;;6.80;99.90;;;;;;5056137;28;19912;-77
2022/11/13 00:37:31;;;;;;;25.33;9.73;;;6.80;99.90;;;;;;5056600;28;20024;-78
2022/11/13 00:39:56;;;;;;;;;;;6.80;99.90;;;;;;5076219;28;20025;-77
2022/11/13 00:42:22;;;;;;;22.20;10.80;;;6.80;99.90;;;;;;5071541;28;19951;-76
2022/11/13 00:44:47;;;;;;;;;;;6.80;99.90;;;;;;5053279;28;20024;-77
2022/11/13 00:47:13;;;;;;;20.92;9.93;;;6.80;99.90;;;;;;5070834;28;19905;-77
2022/11/13 00:49:38;;;;;;;;;;;6.70;99.90;;;;;;5052526;28;20416;-77
2022/11/13 00:52:04;;;;;;;17.92;11.43;;;6.60;99.90;;;;;;5052782;28;19915;-77
2022/11/13 00:54:29;;;;;;;;;;;6.70;99.90;;;;;;5052948;28;20025;-77
2022/11/13 00:56:55;;;;;;;17.13;10.45;;;6.60;99.90;;;;;;5070614;28;19904;-77
2022/11/13 00:59:20;;;;;;;;;;;6.50;99.90;;;;;;5052041;28;20029;-75
2022/11/13 01:01:46;;;;;;;22.20;10.57;;;6.60;99.90;;;;;;5069832;28;19908;-77
2022/11/13 01:04:11;;;;;;;;;;;6.40;99.90;;;;;;5071510;28;20682;-76
2022/11/13 01:06:37;;;;;;;23.90;10.15;;;6.40;99.90;;;;;;5052031;28;19957;-77
2022/11/13 01:09:03;;;;;;;;;;;6.40;99.90;;;;;;5070784;28;20044;-77
2022/11/13 01:11:29;;;;;;;26.17;9.70;;;6.40;99.90;;;;;;5051493;28;19950;-77
2022/11/13 01:13:55;;;;;;;18.23;10.65;;;6.40;99.90;;;;;;5052749;28;20436;-76
2022/11/13 01:16:24;;;;;;;18.33;9.98;;;6.40;99.90;;;;;;5051672;28;20043;-77
2022/11/13 01:18:52;;;;;;;25.02;11.15;;;6.30;99.90;;;;;;5068465;28;20024;-76
2022/11/13 01:21:20;;;;;;;17.27;10.18;;;6.30;99.90;;;;;;5070155;28;20029;-76
2022/11/13 01:23:46;;;;;;;25.10;13.15;;;6.30;99.90;;;;;;5069901;28;20020;-76
2022/11/13 01:26:13;;;;;;;;;;;6.30;99.90;;;;;;5070611;28;20405;-77
2022/11/13 01:28:40;;;;;;;23.38;11.07;;;6.30;99.90;;;;;;5051756;28;20277;-76
2022/11/13 01:31:07;;;;;;;23.65;11.20;;;6.30;99.90;;;;;;5052044;28;20048;-76
2022/11/13 01:33:34;;;;;;;27.27;11.75;;;6.20;99.90;;;;;;5068993;28;20032;-77
2022/11/13 01:36:03;;;;;;;;;;;6.20;99.90;;;;;;5070994;28;20155;-77
2022/11/13 01:38:29;;;;;;;25.40;11.20;;;6.20;99.90;;;;;;5051621;28;19960;-76
2022/11/13 01:40:55;;;;;;;;;;;6.20;99.90;;;;;;5070294;28;20123;-77
2022/11/13 01:43:29;;;;;;;29.13;12.20;;;6.10;99.90;;;;;;5070038;28;19999;-77
2022/11/13 01:45:58;;;;;;;22.00;10.63;;;6.10;99.90;;;;;;5052171;28;20034;-78
2022/11/13 01:48:42;;;;;;;27.10;12.43;;;6.00;99.90;;;;;;5051274;28;20117;-77
2022/11/13 01:51:12;;;;;;;25.80;14.25;;;6.00;99.90;;;;;;5051858;28;20043;-76
2022/11/13 01:53:40;;;;;;;24.45;13.23;;;6.00;99.90;;;;;;5051717;28;20025;-76
2022/11/13 01:56:06;;;;;;;27.88;14.73;;;5.90;99.90;;;;;;5051302;28;20059;-77
2022/11/13 01:58:32;;;;;;;29.92;15.55;;;5.90;99.90;;;;;;5069154;28;20043;-76
2022/11/13 02:00:58;;;;;;;;;;;5.80;99.90;;;;;;5051863;28;20032;-76
2022/11/13 02:03:24;;;;;;;26.35;14.90;;;5.70;99.90;;;;;;5051462;28;19909;-76
2022/11/13 02:05:49;;;;;;;;;;;5.70;99.90;;;;;;5051605;28;20025;-76
2022/11/13 02:08:15;;;;;;;23.05;13.30;;;5.60;99.90;;;;;;5069427;28;19976;-76
2022/11/13 02:10:41;;;;;;;;;;;5.60;99.90;;;;;;5067129;28;20025;-77
2022/11/13 02:13:07;;;;;;;29.70;16.13;;;5.60;99.90;;;;;;5044801;28;19913;-77
2022/11/13 02:15:33;;;;;;;;;;;5.60;99.90;;;;;;5060030;28;20041;-77
2022/11/13 02:18:01;;;;;;;30.42;16.35;;;5.60;99.90;;;;;;5051357;28;19915;-77
2022/11/13 02:20:40;;;;;;;36.38;16.33;;;5.60;99.90;;;;;;5051006;28;20040;-76
2022/11/13 02:23:29;;;;;;;28.35;14.50;;;5.70;99.90;;;;;;5069336;28;20102;-76
2022/11/13 02:25:55;;;;;;;25.55;14.95;;;5.60;99.90;;;;;;5051474;28;20048;-77
2022/11/13 02:28:21;;;;;;;;;;;5.60;99.90;;;;;;5051017;28;20053;-76
2022/11/13 02:30:46;;;;;;;26.27;14.18;;;5.60;99.90;;;;;;5050496;28;19966;-77
2022/11/13 02:33:23;;;;;;;;;;;5.60;99.90;;;;;;5069558;28;20059;-77
2022/11/13 02:35:48;;;;;;;26.92;13.20;;;5.60;99.90;;;;;;5051845;28;19998;-77
2022/11/13 02:38:14;;;;;;;;;;;5.60;99.90;;;;;;5070238;28;20423;-77
2022/11/13 02:40:39;;;;;;;32.47;15.52;;;5.50;99.90;;;;;;5069926;28;20371;-76
2022/11/13 02:43:05;;;;;;;;;;;5.60;99.90;;;;;;5069372;28;20031;-76
2022/11/13 02:45:30;;;;;;;31.55;17.77;;;5.50;99.90;;;;;;5070206;28;19909;-77
2022/11/13 02:47:58;;;;;;;;;;;5.50;99.90;;;;;;5070251;28;20031;-76
2022/11/13 02:50:24;;;;;;;46.17;20.83;;;5.60;99.90;;;;;;5070598;28;20792;-77
2022/11/13 02:52:49;;;;;;;;;;;5.70;99.90;;;;;;5053068;28;20646;-76
2022/11/13 02:55:15;;;;;;;43.92;20.10;;;5.80;99.90;;;;;;5053551;28;19935;-77
2022/11/13 02:57:41;;;;;;;;;;;5.80;99.90;;;;;;5071920;28;20028;-77
2022/11/13 03:00:07;;;;;;;35.55;18.20;;;5.90;99.90;;;;;;5071863;28;19958;-77
2022/11/13 03:02:32;;;;;;;34.20;18.85;;;5.90;99.90;;;;;;5070328;28;20027;-77
2022/11/13 03:04:58;;;;;;;;;;;5.80;99.90;;;;;;5067379;28;20400;-77
2022/11/13 03:07:23;;;;;;;31.85;19.73;;;5.80;99.90;;;;;;5066974;28;20083;-77
2022/11/13 03:09:49;;;;;;;;;;;5.80;99.90;;;;;;5049687;28;20041;-76
2022/11/13 03:12:15;;;;;;;35.78;19.88;;;5.80;99.90;;;;;;5066367;28;19954;-77
2022/11/13 03:14:40;;;;;;;;;;;5.70;99.90;;;;;;5067029;28;20032;-77
2022/11/13 03:17:06;;;;;;;42.15;21.02;;;5.70;99.90;;;;;;5048494;28;19949;-76
2022/11/13 03:19:31;;;;;;;;;;;5.80;99.90;;;;;;5048593;28;20018;-77
2022/11/13 03:21:57;;;;;;;36.60;20.02;;;5.80;99.90;;;;;;5066604;28;19908;-77
2022/11/13 03:24:23;;;;;;;;;;;5.80;99.90;;;;;;5067346;28;20129;-77
2022/11/13 03:26:48;;;;;;;43.92;22.20;;;5.80;99.90;;;;;;5048584;28;19923;-76
2022/11/13 03:29:14;;;;;;;;;;;5.80;99.90;;;;;;5067044;28;20636;-77
2022/11/13 03:31:40;;;;;;;42.03;22.20;;;5.80;99.90;;;;;;5066379;28;19908;-76
2022/11/13 03:34:05;;;;;;;;;;;5.80;99.90;;;;;;5049139;28;20093;-76
2022/11/13 03:36:31;;;;;;;38.47;21.63;;;5.90;99.90;;;;;;5048507;28;19948;-77
2022/11/13 03:38:56;;;;;;;;;;;5.90;99.90;;;;;;5066688;28;20489;-77
2022/11/13 03:41:22;;;;;;;50.72;20.75;;;6.00;99.90;;;;;;5048797;28;19938;-76
2022/11/13 03:43:47;;;;;;;;;;;6.10;99.90;;;;;;5048578;28;20123;-76
2022/11/13 03:46:13;;;;;;;36.80;19.90;;;5.90;99.90;;;;;;5048569;28;20390;-76
2022/11/13 03:48:39;;;;;;;;;;;6.00;99.90;;;;;;5049072;28;20021;-77
2022/11/13 03:51:04;;;;;;;34.15;20.70;;;6.00;99.90;;;;;;5049100;28;19945;-76
2022/11/13 03:53:30;;;;;;;;;;;6.00;99.90;;;;;;5049492;28;20150;-76
2022/11/13 03:55:56;;;;;;;32.58;19.70;;;6.00;99.90;;;;;;5066872;28;20003;-76
2022/11/13 03:58:21;;;;;;;;;;;5.90;99.90;;;;;;5049460;28;20031;-76
2022/11/13 04:00:47;;;;;;;39.33;20.73;;;5.90;99.90;;;;;;5048927;28;19908;-77
2022/11/13 04:03:13;;;;;;;;;;;5.90;99.90;;;;;;5049594;28;20028;-77
2022/11/13 04:05:38;;;;;;;31.58;18.60;;;5.90;99.90;;;;;;5067264;28;20356;-77
2022/11/13 04:08:04;;;;;;;;;;;5.80;99.90;;;;;;5067366;28;20559;-76
2022/11/13 04:10:30;;;;;;;25.35;16.73;;;5.80;99.90;;;;;;5048833;28;20006;-77
2022/11/13 04:12:56;;;;;;;;;;;5.60;99.90;;;;;;5049191;28;20142;-76
2022/11/13 04:15:22;;;;;;;47.80;24.27;;;5.60;99.90;;;;;;5067470;28;19908;-76
2022/11/13 04:17:47;;;;;;;;;;;5.60;99.90;;;;;;5067259;28;20500;-76
2022/11/13 04:20:13;;;;;;;32.60;16.77;;;5.60;99.90;;;;;;5049074;28;20655;-76
2022/11/13 04:22:39;;;;;;;;;;;5.60;99.90;;;;;;5066784;28;20017;-76
2022/11/13 04:25:05;;;;;;;39.10;15.95;;;5.50;99.90;;;;;;5048844;28;19918;-77
2022/11/13 04:27:31;;;;;;;33.15;17.20;;;5.50;99.90;;;;;;5036274;28;20049;-77
2022/11/13 04:29:56;;;;;;;;;;;5.50;99.90;;;;;;5029132;28;20412;-76
2022/11/13 04:32:22;;;;;;;36.03;18.17;;;5.40;99.90;;;;;;5027364;28;19905;-76
2022/11/13 04:34:48;;;;;;;;;;;5.50;99.90;;;;;;5029462;28;20503;-77
2022/11/13 04:37:13;;;;;;;25.70;15.70;;;5.40;99.90;;;;;;5047506;28;20292;-76
2022/11/13 04:39:39;;;;;;;;;;;5.50;99.90;;;;;;5047300;28;20025;-77
2022/11/13 04:44:49;;;;;;;35.15;20.92;;;5.30;99.90;;;;;;5047173;28;20645;-77
2022/11/13 04:47:14;;;;;;;;;;;5.40;99.90;;;;;;5028913;28;20025;-77
2022/11/13 04:49:40;;;;;;;47.03;22.70;;;5.40;99.90;;;;;;5029455;28;19917;-76
2022/11/13 04:52:05;;;;;;;;;;;5.40;99.90;;;;;;5029362;28;20374;-77
2022/11/13 04:54:31;;;;;;;42.80;22.92;;;5.40;99.90;;;;;;5030529;28;19909;-77
2022/11/13 04:56:57;;;;;;;;;;;5.40;99.90;;;;;;5051497;28;20436;-77
2022/11/13 04:59:23;;;;;;;50.15;23.23;;;5.30;99.90;;;;;;5051093;28;19916;-76
2022/11/13 05:01:49;;;;;;;42.45;22.63;;;5.30;99.90;;;;;;5033435;28;20078;-77
2022/11/13 05:04:14;;;;;;;;;;;5.30;99.90;;;;;;5033313;28;20041;-77
2022/11/13 05:06:40;;;;;;;36.42;21.80;;;5.30;99.90;;;;;;5033736;28;20293;-76
2022/11/13 05:09:06;;;;;;;;;;;5.20;99.90;;;;;;5034043;28;20045;-77
2022/11/13 05:11:31;;;;;;;37.08;22.45;;;5.20;99.90;;;;;;5033386;28;19908;-77
2022/11/13 05:13:57;;;;;;;;;;;5.20;99.90;;;;;;5035341;28;20017;-76
2022/11/13 05:16:22;;;;;;;47.17;24.83;;;5.20;99.90;;;;;;5033683;28;19909;-77
2022/11/13 05:18:48;;;;;;;43.20;22.95;;;5.20;99.90;;;;;;5035297;28;20034;-77
2022/11/13 05:21:13;;;;;;;;;;;5.20;99.90;;;;;;5036108;28;20025;-78
2022/11/13 05:23:39;;;;;;;57.60;29.08;;;5.10;99.90;;;;;;5033796;28;20373;-77
2022/11/13 05:26:09;;;;;;;;;;;5.00;99.90;;;;;;5048890;28;20120;-76
2022/11/13 05:28:36;;;;;;;59.20;34.97;;;5.00;99.90;;;;;;5048539;28;19920;-77
2022/11/13 05:31:13;;;;;;;53.33;31.73;;;5.00;99.90;;;;;;5048104;28;20052;-76
2022/11/13 05:33:40;;;;;;;53.28;30.45;;;5.00;99.90;;;;;;5030806;28;20029;-77
2022/11/13 05:36:13;;;;;;;56.63;32.08;;;5.00;99.90;;;;;;5048027;28;20036;-76
2022/11/13 05:38:39;;;;;;;48.55;27.73;;;5.00;99.90;;;;;;5030389;28;20543;-77
2022/11/13 05:41:07;;;;;;;54.53;27.92;;;5.00;99.90;;;;;;5048460;28;20037;-76
2022/11/13 05:43:34;;;;;;;61.88;31.88;;;5.00;99.90;;;;;;5030145;28;20025;-76
2022/11/13 05:46:12;;;;;;;48.90;27.33;;;5.00;99.90;;;;;;5030225;28;20036;-77
2022/11/13 05:48:38;;;;;;;54.35;30.70;;;5.00;99.90;;;;;;5047573;28;20032;-76
2022/11/13 05:51:06;;;;;;;54.60;27.77;;;5.00;99.90;;;;;;5048143;28;20064;-77
2022/11/13 05:53:34;;;;;;;58.78;31.60;;;5.00;99.90;;;;;;5030355;28;20033;-77
2022/11/13 05:56:09;;;;;;;55.13;28.58;;;5.00;99.90;;;;;;5029860;28;20033;-77
2022/11/13 05:58:35;;;;;;;54.83;30.33;;;5.00;99.90;;;;;;5030305;28;20040;-77
2022/11/13 06:01:07;;;;;;;;;;;5.00;99.90;;;;;;5029686;28;20040;-77
2022/11/13 06:03:33;;;;;;;64.53;34.75;;;5.00;99.90;;;;;;5047709;28;19909;-77
2022/11/13 06:05:58;;;;;;;;;;;5.00;99.90;;;;;;5030290;28;20489;-76
2022/11/13 06:08:24;;;;;;;61.05;34.22;;;5.10;99.90;;;;;;5048749;28;19913;-76
2022/11/13 06:10:49;;;;;;;;;;;5.00;99.90;;;;;;5047788;28;20043;-77
2022/11/13 06:13:15;;;;;;;65.13;34.92;;;5.10;99.90;;;;;;5048051;28;20049;-77
2022/11/13 06:15:40;;;;;;;;;;;5.10;99.90;;;;;;5030375;28;20031;-76
2022/11/13 06:18:06;;;;;;;53.13;29.45;;;5.20;99.90;;;;;;5029528;28;20017;-76
2022/11/13 06:20:35;;;;;;;;;;;5.20;99.90;;;;;;5048370;28;20028;-77
2022/11/13 06:23:01;;;;;;;61.35;32.83;;;5.30;99.90;;;;;;5030463;28;19958;-76
2022/11/13 06:25:27;;;;;;;;;;;5.50;99.90;;;;;;5049247;28;20025;-76
2022/11/13 06:27:52;;;;;;;49.40;29.63;;;5.80;99.90;;;;;;5047794;28;19921;-77
2022/11/13 06:30:18;;;;;;;;;;;6.00;99.90;;;;;;5049417;28;20566;-76
2022/11/13 06:32:44;;;;;;;49.28;27.38;;;6.30;99.90;;;;;;5050668;28;20034;-77
2022/11/13 06:35:09;;;;;;;;;;;6.60;99.90;;;;;;5059439;28;20397;-77
2022/11/13 06:37:35;;;;;;;41.53;25.75;;;6.90;99.90;;;;;;5049941;28;20264;-76
2022/11/13 06:40:00;;;;;;;;;;;7.30;99.90;;;;;;5051377;28;20029;-76
2022/11/13 06:42:26;;;;;;;42.08;24.02;;;7.70;99.90;;;;;;5051446;28;20360;-76
2022/11/13 06:44:51;;;;;;;;;;;7.90;99.90;;;;;;5051627;28;20501;-77
2022/11/13 06:47:17;;;;;;;53.80;30.45;;;8.20;99.90;;;;;;5050338;28;19954;-77
2022/11/13 06:49:43;;;;;;;;;;;8.40;99.90;;;;;;5068174;28;20045;-77
2022/11/13 06:52:08;;;;;;;55.65;32.40;;;8.60;99.90;;;;;;5067819;28;19940;-76
2022/11/13 06:54:34;;;;;;;;;;;8.90;99.90;;;;;;5050577;28;20458;-76
2022/11/13 06:56:59;;;;;;;78.57;43.78;;;9.20;99.90;;;;;;5067311;28;20299;-76
2022/11/13 06:59:25;;;;;;;;;;;9.60;99.90;;;;;;5049608;28;20032;-77
2022/11/13 07:01:50;;;;;;;144.57;83.00;;;9.70;99.90;;;;;;5068012;28;19915;-76
2022/11/13 07:04:16;;;;;;;;;;;9.80;99.90;;;;;;5087159;28;20568;-76
2022/11/13 07:06:41;;;;;;;104.82;61.25;;;9.90;99.90;;;;;;5086646;28;20033;-77
2022/11/13 07:09:07;;;;;;;;;;;10.10;99.90;;;;;;5086779;28;20058;-76
2022/11/13 07:11:32;;;;;;;63.20;41.63;;;10.30;99.90;;;;;;5073002;28;20324;-76
2022/11/13 07:13:58;;;;;;;;;;;10.50;99.90;;;;;;5066534;28;20028;-77
2022/11/13 07:16:24;;;;;;;59.15;42.22;;;10.70;99.90;;;;;;5066108;28;19919;-75
2022/11/13 07:18:53;;;;;;;;;;;10.90;99.90;;;;;;5047606;28;20036;-76
2022/11/13 07:21:19;;;;;;;52.78;37.83;;;11.10;99.90;;;;;;5066578;28;19991;-77
2022/11/13 07:23:47;;;;;;;48.95;35.17;;;11.20;99.90;;;;;;5066122;28;20501;-77
2022/11/13 07:26:12;;;;;;;50.38;35.10;;;11.30;99.90;;;;;;5065873;28;20040;-77
2022/11/13 07:28:38;;;;;;;;;;;11.50;99.90;;;;;;5065716;28;20113;-78
2022/11/13 07:31:05;;;;;;;40.85;26.35;;;11.60;99.90;;;;;;5048021;28;19916;-77
2022/11/13 07:33:30;;;;;;;35.95;24.17;;;11.70;99.90;;;;;;5048314;28;20052;-76
2022/11/13 07:35:56;;;;;;;;;;;11.90;99.90;;;;;;5048178;28;20400;-77
2022/11/13 07:38:22;;;;;;;37.97;26.67;;;12.10;99.90;;;;;;5047801;28;19912;-78
2022/11/13 07:40:48;;;;;;;44.20;28.48;;;12.20;99.90;;;;;;5066439;28;20060;-76
2022/11/13 07:43:14;;;;;;;;;;;12.40;99.90;;;;;;5066413;28;20222;-79
2022/11/13 07:45:39;;;;;;;53.95;32.83;;;12.60;99.90;;;;;;5066433;28;20331;-77
2022/11/13 07:48:05;;;;;;;55.70;33.28;;;12.70;99.90;;;;;;5047564;28;20027;-77
2022/11/13 07:50:34;;;;;;;50.47;27.25;;;12.90;99.90;;;;;;5047971;28;20040;-77
2022/11/13 07:53:04;;;;;;;41.92;26.23;;;13.10;99.90;;;;;;5047695;28;20032;-77
2022/11/13 07:55:31;;;;;;;39.35;25.40;;;13.20;99.90;;;;;;5047629;28;20564;-77
2022/11/13 07:57:58;;;;;;;41.80;26.08;;;13.20;99.90;;;;;;5047760;28;20036;-77
2022/11/13 08:00:25;;;;;;;41.95;24.52;;;13.30;99.90;;;;;;5065308;28;20466;-77
2022/11/13 08:02:51;;;;;;;39.70;23.60;;;13.30;99.90;;;;;;5047078;28;20031;-76
2022/11/13 08:05:16;;;;;;;38.67;23.98;;;13.70;99.90;;;;;;5065702;28;20128;-77
2022/11/13 08:07:42;;;;;;;;;;;14.10;99.90;;;;;;5065957;28;20847;-75
2022/11/13 08:10:08;;;;;;;33.58;23.00;;;14.50;99.90;;;;;;5047482;28;19948;-76
2022/11/13 08:12:33;;;;;;;43.20;23.52;;;14.90;99.90;;;;;;5065596;28;20028;-76
2022/11/13 08:14:59;;;;;;;34.55;21.67;;;15.50;99.90;;;;;;5047143;28;20024;-77
2022/11/13 08:17:25;;;;;;;31.73;20.85;;;15.90;99.90;;;;;;5065034;28;20036;-77
2022/11/13 08:19:50;;;;;;;33.90;21.23;;;16.20;99.90;;;;;;5065480;28;20504;-76
2022/11/13 08:22:16;;;;;;;32.33;19.00;;;16.50;99.90;;;;;;5065181;28;20029;-76
2022/11/13 08:24:41;;;;;;;30.38;19.63;;;16.80;99.90;;;;;;5065734;28;20154;-76
2022/11/13 08:27:07;;;;;;;51.35;25.42;;;17.10;99.90;;;;;;5046922;28;20123;-76
2022/11/13 08:29:36;;;;;;;54.50;26.17;;;17.50;99.90;;;;;;5067377;28;20040;-77
2022/11/13 08:32:02;;;;;;;42.88;25.30;;;17.70;99.90;;;;;;5051724;28;20033;-76
2022/11/13 08:34:28;;;;;;;34.10;20.70;;;17.90;99.90;;;;;;5050590;28;20026;-76
2022/11/13 08:36:53;;;;;;;48.22;26.45;;;18.10;99.90;;;;;;5051013;28;20032;-76
2022/11/13 08:39:19;;;;;;;36.85;23.52;;;18.30;99.90;;;;;;5051449;28;20028;-77
2022/11/13 08:41:44;;;;;;;44.42;23.48;;;18.40;99.90;;;;;;5069375;28;20821;-77
2022/11/13 08:44:11;;;;;;;45.97;26.88;;;18.60;99.90;;;;;;5067753;28;20162;-76
2022/11/13 08:46:37;;;;;;;62.80;32.75;;;18.60;99.90;;;;;;5051045;28;20032;-77
2022/11/13 08:49:03;;;;;;;81.07;36.88;;;18.70;99.90;;;;;;5068558;28;20030;-77
2022/11/13 08:51:29;;;;;;;78.18;34.72;;;18.80;99.90;;;;;;5051250;28;20125;-77
2022/11/13 08:53:54;;;;;;;42.53;25.95;;;18.90;99.90;;;;;;5050354;28;20059;-77
2022/11/13 08:56:20;;;;;;;52.78;33.80;;;18.80;99.90;;;;;;5068724;28;20513;-77
2022/11/13 08:58:45;;;;;;;31.85;21.98;;;18.60;99.90;;;;;;5050500;28;20031;-77
2022/11/13 09:01:11;;;;;;;31.08;21.20;;;18.10;99.90;;;;;;5068795;28;20033;-77
2022/11/13 09:03:37;;;;;;;31.10;20.15;;;17.60;99.90;;;;;;5050357;28;20024;-77
2022/11/13 09:06:07;;;;;;;38.25;22.17;;;17.30;99.90;;;;;;5068869;28;20515;-77
2022/11/13 09:08:32;;;;;;;33.80;22.10;;;17.00;99.90;;;;;;5068693;28;20039;-76
2022/11/13 09:11:04;;;;;;;41.22;24.48;;;16.70;99.90;;;;;;5068456;28;20036;-77
2022/11/13 09:13:31;;;;;;;35.67;23.92;;;16.40;99.90;;;;;;5050335;28;20024;-76
2022/11/13 09:16:01;;;;;;;36.78;22.70;;;16.20;99.90;;;;;;5050442;28;20032;-77
2022/11/13 09:18:27;;;;;;;37.47;23.80;;;15.90;99.90;;;;;;5049834;28;20031;-76
2022/11/13 09:20:53;;;;;;;33.15;21.65;;;15.80;99.90;;;;;;5068290;28;20036;-78
2022/11/13 09:23:19;;;;;;;37.75;22.50;;;15.70;99.90;;;;;;5050711;28;20401;-77
2022/11/13 09:25:44;;;;;;;35.70;21.60;;;15.50;99.90;;;;;;5050169;28;20043;-79
2022/11/13 09:28:10;;;;;;;31.35;19.40;;;15.40;99.90;;;;;;5067112;28;20052;-78
2022/11/13 09:30:38;;;;;;;39.10;21.98;;;15.30;99.90;;;;;;5067759;28;20036;-77
2022/11/13 09:33:04;;;;;;;40.25;21.15;;;15.20;99.90;;;;;;5050643;28;20465;-78
2022/11/13 09:35:34;;;;;;;37.10;21.58;;;15.10;99.90;;;;;;5049929;28;20028;-79
2022/11/13 09:38:01;;;;;;;38.88;23.67;;;15.10;99.90;;;;;;5068154;28;20028;-78
2022/11/13 09:40:46;;;;;;;33.83;22.42;;;15.10;99.90;;;;;;5067694;28;20056;-76
2022/11/13 09:43:42;;;;;;;34.78;20.08;;;15.00;99.90;;;;;;5067716;28;20041;-77
2022/11/13 09:46:17;;;;;;;35.78;22.40;;;14.90;99.90;;;;;;5050151;28;20085;-78
2022/11/13 09:48:52;;;;;;;40.88;23.55;;;14.80;99.90;;;;;;5049766;28;20032;-76
2022/11/13 09:51:26;;;;;;;33.65;20.38;;;14.70;99.90;;;;;;5050182;28;20044;-76
2022/11/13 09:53:51;;;;;;;34.17;20.20;;;14.70;99.90;;;;;;5049810;28;20035;-76
2022/11/13 09:56:34;;;;;;;33.72;21.75;;;14.60;99.90;;;;;;5067463;28;20036;-76
2022/11/13 09:59:10;;;;;;;36.45;20.73;;;14.50;99.90;;;;;;5048990;28;20440;-77
2022/11/13 10:01:48;;;;;;;;;;;14.40;99.90;;;;;;5049973;28;20028;-75
2022/11/13 10:04:18;;;;;;;36.13;20.05;;;14.30;99.90;;;;;;5067649;28;19912;-76
2022/11/13 10:06:51;;;;;;;39.67;23.52;;;14.20;99.90;;;;;;5049582;28;20040;-76
2022/11/13 10:09:20;;;;;;;33.42;20.33;;;14.20;99.90;;;;;;5067861;28;20039;-77
2022/11/13 10:12:00;;;;;;;29.98;19.73;;;14.20;99.90;;;;;;5066733;28;20031;-76
2022/11/13 10:14:41;;;;;;;35.28;20.80;;;14.10;99.90;;;;;;5049324;28;20901;-76
2022/11/13 10:17:34;;;;;;;31.00;19.48;;;14.10;99.90;;;;;;5049211;28;20021;-76
2022/11/13 10:20:47;;;;;;;34.97;22.25;;;14.20;99.90;;;;;;5048979;28;20082;-76
2022/11/13 10:23:22;;;;;;;45.05;25.25;;;14.10;99.90;;;;;;5049204;28;20032;-77
2022/11/13 10:25:50;;;;;;;38.63;21.20;;;14.00;99.90;;;;;;5067165;28;20187;-76
2022/11/13 10:28:23;;;;;;;35.55;23.33;;;13.90;99.90;;;;;;5066475;28;20263;-76
2022/11/13 10:30:49;;;;;;;43.13;24.38;;;14.00;99.90;;;;;;5049151;28;20036;-78
2022/11/13 10:33:19;;;;;;;;;;;14.00;99.90;;;;;;5067361;28;20036;-77
2022/11/13 10:35:45;;;;;;;36.28;23.27;;;13.90;99.90;;;;;;5066713;28;19919;-79
2022/11/13 10:38:17;;;;;;;;;;;13.60;99.90;;;;;;5049688;28;20029;-76
2022/11/13 10:40:42;;;;;;;38.10;22.30;;;13.60;99.90;;;;;;5048984;28;20404;-76
2022/11/13 10:43:14;;;;;;;;;;;13.60;99.90;;;;;;5048659;28;20024;-77
2022/11/13 10:45:54;;;;;;;37.20;24.13;;;13.60;99.90;;;;;;5049050;28;20428;-80
2022/11/13 10:48:24;;;;;;;36.10;21.52;;;13.50;99.90;;;;;;5049146;28;20024;-76
2022/11/13 10:51:18;;;;;;;30.67;20.35;;;13.50;99.90;;;;;;5048804;28;20131;-76
2022/11/13 10:53:44;;;;;;;35.60;21.25;;;13.60;99.90;;;;;;5048560;28;20036;-79
2022/11/13 10:56:28;;;;;;;;;;;13.60;99.90;;;;;;5067199;28;20081;-77
2022/11/13 10:59:10;;;;;;;33.75;19.25;;;13.50;99.90;;;;;;5066931;28;19904;-76
2022/11/13 11:01:36;;;;;;;26.77;16.80;;;13.60;99.90;;;;;;5048279;28;20554;-76
2022/11/13 11:04:02;;;;;;;;;;;13.70;99.90;;;;;;5048833;28;20032;-75
2022/11/13 11:06:33;;;;;;;34.77;20.20;;;13.70;99.90;;;;;;5048136;28;19950;-76
2022/11/13 11:09:28;;;;;;;26.67;18.85;;;13.70;99.90;;;;;;5066608;28;20029;-79
2022/11/13 11:12:15;;;;;;;39.75;21.33;;;13.70;99.90;;;;;;5045170;28;20036;-75
2022/11/13 11:14:58;;;;;;;36.03;21.90;;;13.70;99.90;;;;;;5048503;28;20028;-76
2022/11/13 11:17:33;;;;;;;29.30;19.13;;;13.70;99.90;;;;;;5048291;28;20029;-78
2022/11/13 11:20:14;;;;;;;35.42;20.88;;;13.80;99.90;;;;;;5048240;28;20028;-76
2022/11/13 11:22:40;;;;;;;30.33;18.55;;;13.80;99.90;;;;;;5048335;28;20079;-77
2022/11/13 11:25:14;;;;;;;38.03;21.33;;;13.70;99.90;;;;;;5048700;28;20040;-75
2022/11/13 11:27:51;;;;;;;36.63;21.42;;;13.80;99.90;;;;;;5047590;28;20059;-76
2022/11/13 11:30:19;;;;;;;;;;;13.90;99.90;;;;;;5048285;28;20040;-76
2022/11/13 11:33:24;;;;;;;33.60;21.83;;;13.80;99.90;;;;;;5048263;28;19919;-77
2022/11/13 11:36:12;;;;;;;28.02;18.20;;;13.80;99.90;;;;;;5064863;28;20097;-77
2022/11/13 11:38:55;;;;;;;29.95;18.80;;;13.80;99.90;;;;;;4999423;28;20036;-76
2022/11/13 11:41:28;;;;;;;34.17;19.17;;;13.80;99.90;;;;;;5047993;28;20064;-76
2022/11/13 11:44:23;;;;;;;32.45;21.30;;;13.80;99.90;;;;;;5048088;28;20508;-75
2022/11/13 11:46:49;;;;;;;35.20;21.67;;;13.80;99.90;;;;;;5045327;28;20041;-77
2022/11/13 11:49:15;;;;;;;;;;;13.80;99.90;;;;;;5064395;28;20462;-76
2022/11/13 11:52:13;;;;;;;30.90;19.35;;;13.80;99.90;;;;;;5059272;28;19909;-76
2022/11/13 11:54:55;;;;;;;36.97;22.70;;;13.70;99.90;;;;;;5031013;28;20043;-76
2022/11/13 11:57:39;;;;;;;35.58;22.80;;;13.80;99.90;;;;;;5065636;28;20507;-75
2022/11/13 12:00:16;;;;;;;39.70;22.90;;;13.70;99.90;;;;;;5047464;28;20028;-76
2022/11/13 12:02:57;;;;;;;45.17;25.63;;;13.70;99.90;;;;;;5040946;28;20059;-76
2022/11/13 12:05:34;;;;;;;41.70;22.55;;;13.80;99.90;;;;;;5063867;28;20107;-76
2022/11/13 12:08:40;;;;;;;37.95;23.20;;;13.80;99.90;;;;;;5065656;28;20107;-79
2022/11/13 12:11:24;;;;;;;45.33;25.40;;;13.80;99.90;;;;;;5041198;28;20043;-76
2022/11/13 12:14:19;;;;;;;43.33;22.58;;;13.90;99.90;;;;;;5065030;28;20081;-76
2022/11/13 12:17:06;;;;;;;30.77;19.80;;;13.90;99.90;;;;;;5061275;28;20039;-75
2022/11/13 12:19:50;;;;;;;32.72;20.02;;;14.00;99.90;;;;;;5072321;28;20032;-75
2022/11/13 12:22:53;;;;;;;34.83;19.73;;;14.00;99.90;;;;;;5089803;28;20476;-74
2022/11/13 12:25:40;;;;;;;47.78;27.10;;;13.90;99.90;;;;;;5071738;28;20408;-75
2022/11/13 12:28:19;;;;;;;44.75;23.77;;;13.90;99.90;;;;;;5071665;28;20064;-76
2022/11/13 12:31:13;;;;;;;38.72;24.55;;;13.90;99.90;;;;;;5089177;28;20055;-77
2022/11/13 12:34:10;;;;;;;44.35;26.60;;;13.90;99.90;;;;;;5090132;28;20031;-76
2022/11/13 12:36:36;;;;;;;42.53;24.55;;;14.00;99.90;;;;;;5089117;28;20054;-74
2022/11/13 12:39:13;;;;;;;36.90;24.05;;;13.90;99.90;;;;;;5061579;28;20489;-77
2022/11/13 12:41:51;;;;;;;45.75;27.60;;;14.00;99.90;;;;;;5050275;28;20043;-77
2022/11/13 12:44:27;;;;;;;47.08;28.63;;;13.90;99.90;;;;;;5050250;28;20142;-77
2022/11/13 12:46:55;;;;;;;52.90;30.98;;;13.90;99.90;;;;;;5068692;28;20016;-76
2022/11/13 12:49:32;;;;;;;59.03;34.20;;;13.90;99.90;;;;;;5051227;28;20119;-77
2022/11/13 12:52:01;;;;;;;54.63;32.58;;;13.90;99.90;;;;;;5051033;28;20037;-74
2022/11/13 12:54:26;;;;;;;56.92;35.55;;;13.80;99.90;;;;;;5068157;28;20485;-76
2022/11/13 12:56:52;;;;;;;;;;;13.70;99.90;;;;;;5050073;28;20057;-76
2022/11/13 12:59:19;;;;;;;62.03;34.67;;;13.50;99.90;;;;;;5068338;28;19908;-76
2022/11/13 13:01:51;;;;;;;52.65;34.92;;;13.40;99.90;;;;;;5050167;28;20048;-76
2022/11/13 13:04:23;;;;;;;50.97;33.75;;;13.40;99.90;;;;;;5049645;28;20029;-77
2022/11/13 13:07:23;;;;;;;101.05;64.32;;;13.30;99.90;;;;;;5067997;28;20025;-76
2022/11/13 13:10:16;;;;;;;65.15;40.15;;;13.30;99.90;;;;;;5068050;28;20115;-75
2022/11/13 13:12:56;;;;;;;58.55;35.70;;;13.20;99.90;;;;;;5050656;28;20033;-77
2022/11/13 13:15:28;;;;;;;53.58;33.33;;;13.00;99.90;;;;;;5050112;28;20508;-77